Time;durP1;ratioP1;P1;durP2;ratioP2;P2;SDS_P1;SDS_P2;PMS_P1;PMS_P2;Temp;Humidity;BMP_temperature;BMP_pressure;BME280_temperature;BME280_humidity;BME280_pressure;Samples;Min_cycle;Max_cycle;Signal;HPM_P1;HPM_P2
2023/07/26 00:00:57;;;;;;;5.75;2.85;;;16.10;98.80;;;;;;4099648;29;20134;-50
2023/07/26 00:02:59;;;;;;;4.57;2.45;;;16.10;98.80;;;;;;4099273;29;20106;-53
2023/07/26 00:05:03;;;;;;;5.18;2.70;;;16.10;98.50;;;;;;4099260;29;20418;-53
2023/07/26 00:07:05;;;;;;;6.47;2.47;;;16.00;98.60;;;;;;4098885;29;20078;-53
2023/07/26 00:09:08;;;;;;;4.90;2.63;;;16.00;98.30;;;;;;4099716;29;20047;-53
2023/07/26 00:11:10;;;;;;;4.20;3.05;;;16.00;98.50;;;;;;4099658;29;20077;-52
2023/07/26 00:13:12;;;;;;;4.05;2.55;;;16.00;98.40;;;;;;4099269;29;20047;-52
2023/07/26 00:15:14;;;;;;;5.95;2.95;;;16.00;98.40;;;;;;4099307;29;20074;-52
2023/07/26 00:17:17;;;;;;;5.35;3.00;;;16.00;98.10;;;;;;4098808;29;20454;-52
2023/07/26 00:19:19;;;;;;;5.45;2.47;;;16.00;98.00;;;;;;4099195;29;20047;-52
2023/07/26 00:21:23;;;;;;;2.65;2.05;;;16.00;98.50;;;;;;4098189;29;20043;-52
2023/07/26 00:23:25;;;;;;;4.75;2.30;;;15.90;98.30;;;;;;4099296;29;20053;-52
2023/07/26 00:25:27;;;;;;;5.05;2.45;;;16.00;98.10;;;;;;4099433;29;20054;-52
2023/07/26 00:27:29;;;;;;;4.95;2.55;;;15.90;98.40;;;;;;4098245;29;20117;-52
2023/07/26 00:29:31;;;;;;;4.97;2.38;;;15.80;98.00;;;;;;4097981;29;20051;-52
2023/07/26 00:31:33;;;;;;;5.15;2.70;;;15.90;98.40;;;;;;4099353;29;20067;-52
2023/07/26 00:33:35;;;;;;;7.60;3.00;;;15.80;98.10;;;;;;4099298;29;20054;-52
2023/07/26 00:35:40;;;;;;;6.40;2.90;;;15.80;98.50;;;;;;4099647;28;20053;-52
2023/07/26 00:37:44;;;;;;;3.15;2.40;;;15.70;98.70;;;;;;4100350;29;20092;-52
2023/07/26 00:39:46;;;;;;;4.43;2.60;;;15.70;98.80;;;;;;4102190;29;20047;-52
2023/07/26 00:41:48;;;;;;;5.43;2.53;;;15.70;98.70;;;;;;4101786;29;20129;-52
2023/07/26 00:43:50;;;;;;;5.07;2.42;;;15.70;98.50;;;;;;4102026;29;20058;-52
2023/07/26 00:45:53;;;;;;;4.00;2.55;;;15.80;99.20;;;;;;4101002;29;20047;-52
2023/07/26 00:47:56;;;;;;;5.63;2.47;;;15.80;98.90;;;;;;4084266;29;20427;-52
2023/07/26 00:49:58;;;;;;;5.38;2.80;;;15.80;98.60;;;;;;4102219;29;20605;-52
2023/07/26 00:52:00;;;;;;;5.30;3.13;;;15.70;98.00;;;;;;4101809;29;20075;-52
2023/07/26 00:54:05;;;;;;;7.53;2.83;;;15.80;98.50;;;;;;4101818;29;20131;-52
2023/07/26 00:56:09;;;;;;;6.38;3.00;;;15.80;98.90;;;;;;4101586;29;20075;-51
2023/07/26 00:58:11;;;;;;;7.15;3.40;;;15.80;98.50;;;;;;4101260;29;20110;-52
2023/07/26 01:00:15;;;;;;;6.63;2.97;;;15.70;98.70;;;;;;4102116;29;20075;-52
2023/07/26 01:02:17;;;;;;;6.80;2.40;;;15.80;98.70;;;;;;4101728;29;20047;-51
2023/07/26 01:04:19;;;;;;;6.03;3.22;;;15.80;98.70;;;;;;4101786;29;20062;-53
2023/07/26 01:06:29;;;;;;;3.13;2.42;;;15.80;99.00;;;;;;4101880;29;20417;-52
2023/07/26 01:08:42;;;;;;;5.50;2.90;;;15.80;98.90;;;;;;4084005;29;20087;-51
2023/07/26 01:10:53;;;;;;;7.47;2.45;;;15.80;98.90;;;;;;4101381;29;20118;-53
2023/07/26 01:13:02;;;;;;;6.93;2.65;;;15.80;98.90;;;;;;4101787;29;20047;-53
2023/07/26 01:15:07;;;;;;;4.43;2.67;;;15.80;99.00;;;;;;4101683;29;20099;-52
2023/07/26 01:17:10;;;;;;;3.85;2.47;;;15.80;99.10;;;;;;4101066;29;20066;-52
2023/07/26 01:19:12;;;;;;;5.90;2.63;;;15.80;98.80;;;;;;4101547;29;20073;-52
2023/07/26 01:21:14;;;;;;;6.25;3.25;;;15.80;99.10;;;;;;4101848;29;20126;-52
2023/07/26 01:23:18;;;;;;;3.88;2.25;;;15.70;99.10;;;;;;4084486;29;20062;-53
2023/07/26 01:25:20;;;;;;;6.65;2.63;;;15.70;98.90;;;;;;4101374;29;20055;-52
2023/07/26 01:27:22;;;;;;;3.05;2.33;;;15.70;98.90;;;;;;4100658;29;20050;-53
2023/07/26 01:29:24;;;;;;;5.85;2.88;;;15.70;99.00;;;;;;4101622;29;20196;-53
2023/07/26 01:31:27;;;;;;;5.25;2.63;;;15.70;98.90;;;;;;4101455;29;20074;-53
2023/07/26 01:33:31;;;;;;;3.78;2.42;;;15.70;98.90;;;;;;4101278;29;20122;-52
2023/07/26 01:35:35;;;;;;;4.78;2.42;;;15.70;98.50;;;;;;4101334;29;20054;-53
2023/07/26 01:37:37;;;;;;;5.30;2.40;;;15.60;98.90;;;;;;4100701;29;20070;-53
2023/07/26 01:39:41;;;;;;;5.03;2.53;;;15.60;98.80;;;;;;4101006;29;20083;-52
2023/07/26 01:41:44;;;;;;;3.95;2.58;;;15.60;98.90;;;;;;4101290;29;20043;-52
2023/07/26 01:43:46;;;;;;;7.70;2.30;;;15.60;98.80;;;;;;4100093;29;20057;-53
2023/07/26 01:45:48;;;;;;;6.93;2.63;;;15.70;98.70;;;;;;4101410;29;20057;-53
2023/07/26 01:47:52;;;;;;;4.65;2.00;;;15.60;98.80;;;;;;4100396;28;20126;-52
2023/07/26 01:49:55;;;;;;;5.82;2.35;;;15.70;99.10;;;;;;4101119;29;20476;-52
2023/07/26 01:51:57;;;;;;;4.88;2.30;;;15.60;99.30;;;;;;4101266;29;20050;-52
2023/07/26 01:53:59;;;;;;;3.10;2.10;;;15.70;99.10;;;;;;4099754;29;20059;-52
2023/07/26 01:56:02;;;;;;;6.65;2.20;;;15.60;99.10;;;;;;4101029;29;20126;-50
2023/07/26 01:58:05;;;;;;;5.35;1.90;;;15.60;99.10;;;;;;4100379;29;20435;-50
2023/07/26 02:00:08;;;;;;;5.65;2.25;;;15.60;99.20;;;;;;4101315;29;20563;-54
2023/07/26 02:02:10;;;;;;;6.88;2.03;;;15.50;99.10;;;;;;4100915;29;20127;-53
2023/07/26 02:04:12;;;;;;;4.88;2.40;;;15.50;99.20;;;;;;4100669;29;20081;-52
2023/07/26 02:06:15;;;;;;;5.82;2.10;;;15.50;98.90;;;;;;4100939;29;20109;-52
2023/07/26 02:08:18;;;;;;;3.47;2.20;;;15.50;99.00;;;;;;4098534;29;20130;-52
2023/07/26 02:10:20;;;;;;;3.83;2.30;;;15.60;99.50;;;;;;4101080;29;20055;-52
2023/07/26 02:12:23;;;;;;;3.90;2.05;;;15.60;99.20;;;;;;4100935;29;20380;-54
2023/07/26 02:14:25;;;;;;;4.80;1.85;;;15.50;99.40;;;;;;4100816;29;20455;-52
2023/07/26 02:16:28;;;;;;;3.78;1.92;;;15.50;99.60;;;;;;4083774;29;20138;-50
2023/07/26 02:18:31;;;;;;;3.97;2.28;;;15.50;99.10;;;;;;4099916;29;20074;-50
2023/07/26 02:20:34;;;;;;;4.80;2.22;;;15.40;99.30;;;;;;4100785;29;20047;-50
2023/07/26 02:22:37;;;;;;;2.40;1.92;;;15.40;99.30;;;;;;4100271;29;20043;-50
2023/07/26 02:24:38;;;;;;;3.58;2.03;;;15.40;99.20;;;;;;4100733;29;20434;-52
2023/07/26 02:26:41;;;;;;;4.38;2.17;;;15.40;99.30;;;;;;4100706;29;20051;-50
2023/07/26 02:28:44;;;;;;;3.75;2.03;;;15.40;99.50;;;;;;4099783;29;20074;-50
2023/07/26 02:30:46;;;;;;;4.25;2.63;;;15.40;99.90;;;;;;4100474;29;20051;-50
2023/07/26 02:32:48;;;;;;;6.30;2.30;;;15.40;99.80;;;;;;4100794;29;20439;-50
2023/07/26 02:34:51;;;;;;;4.78;2.60;;;15.40;99.70;;;;;;4100562;29;20487;-50
2023/07/26 02:36:53;;;;;;;3.55;2.28;;;15.40;99.80;;;;;;4100037;29;20053;-51
2023/07/26 02:38:55;;;;;;;9.07;2.47;;;15.40;99.90;;;;;;4099764;29;20061;-52
2023/07/26 02:40:57;;;;;;;6.00;2.38;;;15.40;99.70;;;;;;4100373;29;20487;-51
2023/07/26 02:42:59;;;;;;;3.05;2.42;;;15.30;99.50;;;;;;4100535;29;20059;-51
2023/07/26 02:45:03;;;;;;;2.95;2.08;;;15.30;99.90;;;;;;4100341;29;20048;-51
2023/07/26 02:47:05;;;;;;;;;;;15.30;99.70;;;;;;4100526;29;20058;-52
2023/07/26 02:49:07;;;;;;;4.15;2.38;;;15.30;99.80;;;;;;4100218;29;20366;-52
2023/07/26 02:51:09;;;;;;;4.65;2.40;;;15.30;99.90;;;;;;4100322;29;20498;-52
2023/07/26 02:53:12;;;;;;;2.08;1.85;;;15.30;99.90;;;;;;4098658;29;20047;-51
2023/07/26 02:55:14;;;;;;;5.20;2.00;;;15.30;99.90;;;;;;4100305;29;20047;-52
2023/07/26 02:57:16;;;;;;;4.65;1.90;;;15.30;99.90;;;;;;4099530;29;20074;-51
2023/07/26 02:59:18;;;;;;;3.90;2.05;;;15.30;99.90;;;;;;4099398;28;20075;-50
2023/07/26 03:01:21;;;;;;;5.63;2.53;;;15.30;99.90;;;;;;4100246;29;20053;-52
2023/07/26 03:03:23;;;;;;;6.28;2.03;;;15.30;99.90;;;;;;4099787;29;20081;-53
2023/07/26 03:05:26;;;;;;;3.78;2.05;;;15.30;99.90;;;;;;4099989;29;20110;-52
2023/07/26 03:07:28;;;;;;;2.83;1.85;;;15.30;99.90;;;;;;4099109;29;20394;-52
2023/07/26 03:09:30;;;;;;;3.35;1.80;;;15.30;99.90;;;;;;4100075;29;20105;-49
2023/07/26 03:11:32;;;;;;;4.18;2.10;;;15.30;99.90;;;;;;4099846;29;20122;-53
2023/07/26 03:13:34;;;;;;;6.18;2.30;;;15.30;99.90;;;;;;4100087;29;20047;-52
2023/07/26 03:15:39;;;;;;;6.20;2.65;;;15.30;99.90;;;;;;4099829;29;20419;-53
2023/07/26 03:17:42;;;;;;;2.88;2.13;;;15.30;99.90;;;;;;4099266;29;20104;-52
2023/07/26 03:19:44;;;;;;;4.57;2.20;;;15.20;99.90;;;;;;4099773;29;20050;-52
2023/07/26 03:21:46;;;;;;;4.80;2.13;;;15.20;99.90;;;;;;4099460;29;20458;-52
2023/07/26 03:23:48;;;;;;;4.88;2.30;;;15.20;99.90;;;;;;4099702;29;20082;-53
2023/07/26 03:25:51;;;;;;;4.22;2.78;;;15.20;99.90;;;;;;4099732;29;20429;-52
2023/07/26 03:27:53;;;;;;;5.65;2.15;;;15.20;99.90;;;;;;4098881;29;20122;-53
2023/07/26 03:29:55;;;;;;;8.10;2.22;;;15.20;99.90;;;;;;4099878;29;20051;-53
2023/07/26 03:31:57;;;;;;;5.60;2.28;;;15.20;99.90;;;;;;4099644;29;20039;-53
2023/07/26 03:34:01;;;;;;;4.82;2.50;;;15.20;99.90;;;;;;4099661;29;20051;-53
2023/07/26 03:36:03;;;;;;;8.38;2.40;;;15.20;99.90;;;;;;4099300;29;20047;-53
2023/07/26 03:38:06;;;;;;;5.40;2.30;;;15.10;99.90;;;;;;4099050;29;20047;-53
2023/07/26 03:40:09;;;;;;;4.03;2.10;;;15.10;99.90;;;;;;4099577;29;20047;-53
2023/07/26 03:42:11;;;;;;;4.20;2.00;;;15.20;99.90;;;;;;4099506;29;20070;-53
2023/07/26 03:44:13;;;;;;;5.65;2.10;;;15.10;99.90;;;;;;4082614;29;20491;-52
2023/07/26 03:46:16;;;;;;;4.25;1.98;;;15.10;99.90;;;;;;4099764;29;20047;-52
2023/07/26 03:48:18;;;;;;;4.53;2.35;;;15.10;99.90;;;;;;4098787;29;20063;-53
2023/07/26 03:50:22;;;;;;;8.90;2.15;;;15.10;99.90;;;;;;4098092;29;20079;-52
2023/07/26 03:52:24;;;;;;;4.13;2.67;;;15.10;99.90;;;;;;4099768;29;20075;-53
2023/07/26 03:54:26;;;;;;;7.70;2.60;;;15.10;99.90;;;;;;4099502;29;20150;-53
2023/07/26 03:56:28;;;;;;;4.57;2.65;;;15.10;99.90;;;;;;4099484;29;20050;-52
2023/07/26 03:58:31;;;;;;;3.38;2.25;;;15.10;99.90;;;;;;4098900;29;20441;-53
2023/07/26 04:00:33;;;;;;;7.15;2.35;;;15.10;99.90;;;;;;4099397;29;20411;-53
2023/07/26 04:02:35;;;;;;;4.30;2.28;;;15.10;99.90;;;;;;4099439;29;20057;-53
2023/07/26 04:04:39;;;;;;;3.95;2.30;;;15.10;99.90;;;;;;4098961;29;20416;-53
2023/07/26 04:06:42;;;;;;;5.97;2.58;;;15.10;99.90;;;;;;4099391;29;20148;-53
2023/07/26 04:08:44;;;;;;;7.65;2.50;;;15.10;99.90;;;;;;4098803;29;20075;-52
2023/07/26 04:10:46;;;;;;;7.13;2.60;;;15.10;99.90;;;;;;4100409;28;20058;-51
2023/07/26 04:12:48;;;;;;;3.13;2.15;;;15.10;99.90;;;;;;4102696;29;20479;-52
2023/07/26 04:14:50;;;;;;;3.60;2.15;;;15.20;99.90;;;;;;4085480;29;20059;-51
2023/07/26 04:16:53;;;;;;;5.22;2.10;;;15.10;99.90;;;;;;4101261;29;20051;-50
2023/07/26 04:18:55;;;;;;;4.45;2.60;;;15.10;99.90;;;;;;4101506;29;20073;-50
2023/07/26 04:20:57;;;;;;;4.38;2.33;;;15.10;99.90;;;;;;4102435;29;20048;-50
2023/07/26 04:23:00;;;;;;;6.25;2.30;;;15.20;99.90;;;;;;4102470;29;20082;-50
2023/07/26 04:25:03;;;;;;;4.82;2.42;;;15.10;99.90;;;;;;4102514;29;20483;-50
2023/07/26 04:27:06;;;;;;;7.13;2.85;;;15.10;99.90;;;;;;4102324;29;20519;-53
2023/07/26 04:29:08;;;;;;;6.35;2.80;;;15.10;99.90;;;;;;4101683;29;20479;-52
2023/07/26 04:31:10;;;;;;;4.40;2.50;;;15.10;99.90;;;;;;4102373;29;20126;-52
2023/07/26 04:33:12;;;;;;;5.30;2.67;;;15.20;99.90;;;;;;4100789;29;20059;-51
2023/07/26 04:35:14;;;;;;;3.05;2.13;;;15.20;99.90;;;;;;4102551;29;20043;-51
2023/07/26 04:37:17;;;;;;;5.82;2.40;;;15.20;99.90;;;;;;4102165;29;20054;-51
2023/07/26 04:39:20;;;;;;;6.55;2.40;;;15.30;99.90;;;;;;4101608;29;20048;-52
2023/07/26 04:41:22;;;;;;;8.85;2.33;;;15.20;99.90;;;;;;4102261;29;20051;-52
2023/07/26 04:43:24;;;;;;;4.30;2.53;;;15.20;99.90;;;;;;4102256;29;20043;-51
2023/07/26 04:45:26;;;;;;;4.70;2.40;;;15.20;99.90;;;;;;4102159;29;20043;-52
2023/07/26 04:47:28;;;;;;;5.20;2.13;;;15.20;99.90;;;;;;4101513;29;20134;-52
2023/07/26 04:49:31;;;;;;;5.80;2.50;;;15.30;99.90;;;;;;4101762;29;20105;-51
2023/07/26 04:51:33;;;;;;;7.82;2.60;;;15.30;99.90;;;;;;4102193;29;20105;-52
2023/07/26 04:53:35;;;;;;;5.10;2.47;;;15.30;99.90;;;;;;4102264;29;20139;-52
2023/07/26 04:55:43;;;;;;;5.65;2.55;;;15.30;99.90;;;;;;4101946;29;20415;-53
2023/07/26 04:57:45;;;;;;;7.63;2.60;;;15.30;99.90;;;;;;4101443;29;20047;-52
2023/07/26 04:59:47;;;;;;;7.57;2.58;;;15.30;99.90;;;;;;4101822;29;20082;-51
2023/07/26 05:01:49;;;;;;;11.25;2.50;;;15.30;99.90;;;;;;4101647;29;20047;-51
2023/07/26 05:03:51;;;;;;;9.10;2.47;;;15.40;99.90;;;;;;4101713;29;20082;-51
2023/07/26 05:05:53;;;;;;;9.10;2.63;;;15.30;99.90;;;;;;4100871;29;20070;-50
2023/07/26 05:07:55;;;;;;;5.97;2.95;;;15.40;99.90;;;;;;4101294;29;20051;-51
2023/07/26 05:09:58;;;;;;;3.92;2.40;;;15.50;99.90;;;;;;4101855;29;20051;-50
2023/07/26 05:12:02;;;;;;;7.75;2.97;;;15.50;99.90;;;;;;4101676;29;20051;-51
2023/07/26 05:14:04;;;;;;;5.18;2.47;;;15.50;99.90;;;;;;4084720;29;20468;-50
2023/07/26 05:16:06;;;;;;;4.82;2.40;;;15.60;99.90;;;;;;4101653;29;20069;-50
2023/07/26 05:18:08;;;;;;;5.57;2.67;;;15.60;99.90;;;;;;4100832;29;20047;-50
2023/07/26 05:20:12;;;;;;;6.07;2.60;;;15.60;99.90;;;;;;4101777;29;20535;-49
2023/07/26 05:22:15;;;;;;;5.75;2.97;;;15.60;99.90;;;;;;4101171;28;20051;-52
2023/07/26 05:24:17;;;;;;;5.28;2.88;;;15.60;99.90;;;;;;4101602;29;20051;-53
2023/07/26 05:26:19;;;;;;;8.07;2.80;;;15.60;99.90;;;;;;4101720;29;20051;-53
2023/07/26 05:28:23;;;;;;;5.63;2.30;;;15.70;99.90;;;;;;4100745;29;20514;-50
2023/07/26 05:30:25;;;;;;;5.68;2.67;;;15.70;99.90;;;;;;4101571;29;20050;-53
2023/07/26 05:32:27;;;;;;;5.28;2.30;;;15.80;99.90;;;;;;4101077;29;20057;-52
2023/07/26 05:34:29;;;;;;;5.13;2.63;;;15.80;99.90;;;;;;4101538;29;20047;-52
2023/07/26 05:36:31;;;;;;;8.27;3.33;;;15.80;99.90;;;;;;4101534;29;20138;-52
2023/07/26 05:38:33;;;;;;;7.38;3.00;;;15.80;99.90;;;;;;4100891;29;20463;-52
2023/07/26 05:40:36;;;;;;;6.72;2.83;;;15.80;99.90;;;;;;4101335;29;20044;-52
2023/07/26 05:42:38;;;;;;;7.97;3.15;;;15.90;99.90;;;;;;4101267;29;20051;-52
2023/07/26 05:44:41;;;;;;;9.23;3.30;;;15.90;99.90;;;;;;4101384;29;20055;-53
2023/07/26 05:46:43;;;;;;;10.57;2.95;;;16.00;99.90;;;;;;4100879;29;20118;-52
2023/07/26 05:48:45;;;;;;;9.98;3.05;;;16.00;99.90;;;;;;4100589;29;20130;-53
2023/07/26 05:50:48;;;;;;;14.77;3.55;;;15.90;99.90;;;;;;4100458;29;20599;-52
2023/07/26 05:52:50;;;;;;;9.27;3.05;;;16.00;99.90;;;;;;4101175;29;20483;-52
2023/07/26 05:54:52;;;;;;;11.27;3.40;;;16.00;99.90;;;;;;4101353;29;20558;-52
2023/07/26 05:56:54;;;;;;;7.60;3.60;;;16.00;99.90;;;;;;4101178;29;20074;-52
2023/07/26 05:58:56;;;;;;;11.40;3.75;;;16.00;99.90;;;;;;4100361;29;20059;-52
2023/07/26 06:01:00;;;;;;;10.15;3.17;;;16.10;99.90;;;;;;4099598;29;20055;-53
2023/07/26 06:03:02;;;;;;;7.22;3.45;;;16.10;99.90;;;;;;4101157;29;20089;-52
2023/07/26 06:05:05;;;;;;;9.77;3.53;;;16.00;99.90;;;;;;4085165;29;20544;-53
2023/07/26 06:07:07;;;;;;;9.90;3.28;;;16.10;99.90;;;;;;4085236;29;20047;-52
2023/07/26 06:09:09;;;;;;;13.43;3.72;;;16.10;99.90;;;;;;4084622;29;20130;-52
2023/07/26 06:11:11;;;;;;;11.95;3.83;;;16.10;99.90;;;;;;4085006;29;20063;-52
2023/07/26 06:13:13;;;;;;;11.90;3.47;;;16.10;99.90;;;;;;4085221;29;20487;-52
2023/07/26 06:15:16;;;;;;;8.27;3.42;;;16.20;99.90;;;;;;4084629;29;20063;-52
2023/07/26 06:17:19;;;;;;;12.70;3.25;;;16.20;99.90;;;;;;4084904;29;20407;-52
2023/07/26 06:19:21;;;;;;;9.88;3.38;;;16.20;99.90;;;;;;4084318;29;20058;-52
2023/07/26 06:21:23;;;;;;;8.75;3.38;;;16.30;99.90;;;;;;4084877;29;20492;-51
2023/07/26 06:23:26;;;;;;;11.15;3.42;;;16.30;99.90;;;;;;4084860;29;20559;-52
2023/07/26 06:25:28;;;;;;;12.55;3.65;;;16.30;99.90;;;;;;4084903;29;20044;-52
2023/07/26 06:27:30;;;;;;;8.07;4.18;;;16.30;99.90;;;;;;4084664;29;20483;-52
2023/07/26 06:29:34;;;;;;;10.85;3.65;;;16.30;99.90;;;;;;4083647;29;20106;-52
2023/07/26 06:31:36;;;;;;;8.55;3.50;;;16.30;99.90;;;;;;4084977;29;20616;-52
2023/07/26 06:33:39;;;;;;;8.48;3.75;;;16.40;99.90;;;;;;4083776;29;20090;-52
2023/07/26 06:35:41;;;;;;;11.88;4.35;;;16.40;99.90;;;;;;4084838;29;20054;-53
2023/07/26 06:37:44;;;;;;;6.97;3.75;;;16.50;99.90;;;;;;4084484;29;20466;-53
2023/07/26 06:39:46;;;;;;;12.40;4.30;;;16.50;99.90;;;;;;4084217;29;20484;-52
2023/07/26 06:41:48;;;;;;;14.25;3.67;;;16.50;99.90;;;;;;4084449;29;20055;-53
2023/07/26 06:43:50;;;;;;;18.27;4.28;;;16.50;99.90;;;;;;4084340;29;20048;-52
2023/07/26 06:45:52;;;;;;;10.85;3.97;;;16.60;99.90;;;;;;4084668;29;20059;-53
2023/07/26 06:47:55;;;;;;;11.60;4.38;;;16.60;99.90;;;;;;4066800;29;20091;-53
2023/07/26 06:49:58;;;;;;;11.30;4.47;;;16.70;99.90;;;;;;4084202;29;20048;-52
2023/07/26 06:52:00;;;;;;;13.68;4.15;;;16.70;99.90;;;;;;4084352;29;20048;-52
2023/07/26 06:54:02;;;;;;;10.30;4.63;;;16.80;99.90;;;;;;4084318;29;20054;-50
2023/07/26 06:56:05;;;;;;;11.90;4.28;;;16.80;99.90;;;;;;4084445;29;20051;-50
2023/07/26 06:58:07;;;;;;;12.73;5.13;;;16.80;99.90;;;;;;4083440;29;20470;-52
2023/07/26 07:00:12;;;;;;;10.75;4.47;;;16.80;99.90;;;;;;4084083;29;20123;-49
2023/07/26 07:02:14;;;;;;;17.17;4.85;;;16.80;99.90;;;;;;4084167;29;20122;-50
2023/07/26 07:04:17;;;;;;;9.60;4.55;;;16.90;99.90;;;;;;4093686;29;20059;-50
2023/07/26 07:06:20;;;;;;;17.42;5.30;;;17.00;99.90;;;;;;4099857;29;20058;-49
2023/07/26 07:08:24;;;;;;;11.88;4.65;;;17.10;99.90;;;;;;4099381;29;20134;-52
2023/07/26 07:10:26;;;;;;;12.27;5.83;;;17.00;99.90;;;;;;4099831;29;20078;-52
2023/07/26 07:12:28;;;;;;;12.32;5.32;;;17.10;99.90;;;;;;4099561;29;20770;-53
2023/07/26 07:14:30;;;;;;;10.90;5.15;;;17.00;99.90;;;;;;4099920;29;20075;-49
2023/07/26 07:16:33;;;;;;;10.55;4.43;;;17.10;99.90;;;;;;4099920;29;20055;-50
2023/07/26 07:18:35;;;;;;;12.48;5.07;;;17.20;99.90;;;;;;4099192;29;20055;-52
2023/07/26 07:20:40;;;;;;;11.10;4.82;;;17.40;99.90;;;;;;4099799;29;20090;-50
2023/07/26 07:22:43;;;;;;;38.38;6.25;;;17.60;99.90;;;;;;4099999;29;20134;-51
2023/07/26 07:24:45;;;;;;;10.88;4.72;;;17.70;99.90;;;;;;4099841;29;20088;-52
2023/07/26 07:26:47;;;;;;;23.20;5.68;;;17.90;99.90;;;;;;4099625;29;20070;-52
2023/07/26 07:28:49;;;;;;;15.48;5.53;;;18.10;99.90;;;;;;4099073;29;20075;-53
2023/07/26 07:30:52;;;;;;;16.30;4.93;;;18.20;99.90;;;;;;4099835;29;20081;-52
2023/07/26 07:32:54;;;;;;;14.82;5.13;;;18.20;99.90;;;;;;4099645;29;20118;-51
2023/07/26 07:34:56;;;;;;;15.27;4.50;;;18.30;99.90;;;;;;4099710;29;20094;-52
2023/07/26 07:36:59;;;;;;;12.77;4.45;;;18.50;99.90;;;;;;4099817;29;20118;-51
2023/07/26 07:39:07;;;;;;;17.02;5.45;;;18.50;99.90;;;;;;4099055;29;20047;-50
2023/07/26 07:41:09;;;;;;;15.10;5.25;;;18.60;99.90;;;;;;4099716;29;20047;-50
2023/07/26 07:43:13;;;;;;;10.23;5.18;;;18.70;99.90;;;;;;4099493;29;20043;-52
2023/07/26 07:45:16;;;;;;;13.88;4.70;;;18.90;99.90;;;;;;4099450;28;20051;-49
2023/07/26 07:47:18;;;;;;;9.75;4.57;;;18.80;99.90;;;;;;4099579;29;20122;-53
2023/07/26 07:49:20;;;;;;;10.20;4.55;;;18.80;99.90;;;;;;4098808;29;20047;-50
2023/07/26 07:51:22;;;;;;;9.20;4.07;;;18.80;99.90;;;;;;4099490;29;20126;-50
2023/07/26 07:53:24;;;;;;;19.92;5.03;;;18.90;99.60;;;;;;4099348;29;20047;-50
2023/07/26 07:55:31;;;;;;;10.98;4.50;;;19.10;99.50;;;;;;4099467;29;20054;-51
2023/07/26 07:57:33;;;;;;;13.68;4.82;;;19.20;99.00;;;;;;4099261;29;20134;-50
2023/07/26 07:59:35;;;;;;;10.30;3.90;;;19.20;98.90;;;;;;4098681;29;20046;-53
2023/07/26 08:01:37;;;;;;;12.60;5.03;;;19.30;99.00;;;;;;4099678;29;20131;-52
2023/07/26 08:03:39;;;;;;;14.38;4.60;;;19.30;98.90;;;;;;4099479;29;20055;-51
2023/07/26 08:05:42;;;;;;;13.77;4.40;;;19.30;98.90;;;;;;4082667;29;20048;-51
2023/07/26 08:07:44;;;;;;;14.35;4.07;;;19.40;98.40;;;;;;4099348;29;20085;-51
2023/07/26 08:09:46;;;;;;;12.32;4.78;;;19.60;98.40;;;;;;4098775;29;20039;-53
2023/07/26 08:11:49;;;;;;;11.38;4.10;;;19.70;98.50;;;;;;4099081;29;20051;-51
2023/07/26 08:13:51;;;;;;;12.45;4.30;;;19.80;97.80;;;;;;4099666;29;20055;-52
2023/07/26 08:15:56;;;;;;;11.60;4.25;;;19.90;97.70;;;;;;4099977;29;20133;-52
2023/07/26 08:17:58;;;;;;;;;;;19.90;97.50;;;;;;4098918;29;20159;-53
2023/07/26 08:20:00;;;;;;;8.52;3.60;;;19.90;97.00;;;;;;4099243;29;19922;-55
2023/07/26 08:22:03;;;;;;;10.88;4.43;;;20.00;97.20;;;;;;4099789;29;20074;-54
2023/07/26 08:24:06;;;;;;;9.25;3.47;;;20.10;96.80;;;;;;4099642;29;20384;-53
2023/07/26 08:26:09;;;;;;;8.70;3.60;;;20.00;96.10;;;;;;4099263;29;20067;-52
2023/07/26 08:28:12;;;;;;;11.82;3.83;;;19.80;96.10;;;;;;4099273;29;20043;-54
2023/07/26 08:30:14;;;;;;;10.15;3.78;;;19.80;96.10;;;;;;4098807;29;20057;-53
2023/07/26 08:32:17;;;;;;;6.22;2.85;;;20.00;95.70;;;;;;4097910;29;20051;-53
2023/07/26 08:34:19;;;;;;;10.18;3.10;;;20.20;95.70;;;;;;4099207;29;20054;-53
2023/07/26 08:36:22;;;;;;;10.82;3.70;;;20.40;95.70;;;;;;4098166;29;20062;-52
2023/07/26 08:38:24;;;;;;;14.13;3.90;;;20.50;95.30;;;;;;4097414;29;20417;-50
2023/07/26 08:40:26;;;;;;;9.02;2.88;;;20.70;95.60;;;;;;4097150;29;20455;-50
2023/07/26 08:42:28;;;;;;;7.68;3.35;;;20.50;94.50;;;;;;4098786;29;20055;-52
2023/07/26 08:44:33;;;;;;;8.48;2.85;;;20.50;94.70;;;;;;4099246;29;20122;-53
2023/07/26 08:46:39;;;;;;;5.35;2.25;;;20.40;94.50;;;;;;4097843;28;20047;-51
2023/07/26 08:48:42;;;;;;;9.63;3.13;;;20.30;94.20;;;;;;4102382;28;20062;-50
2023/07/26 08:50:44;;;;;;;5.45;2.53;;;20.40;94.30;;;;;;4076486;29;20445;-50
2023/07/26 08:52:47;;;;;;;8.80;3.50;;;20.60;94.20;;;;;;4081344;29;20051;-50
2023/07/26 08:54:51;;;;;;;9.38;2.75;;;20.70;94.60;;;;;;4098401;29;20131;-51
2023/07/26 08:56:53;;;;;;;6.47;2.78;;;20.70;94.60;;;;;;4099728;28;20043;-50
2023/07/26 08:58:55;;;;;;;6.82;2.50;;;20.80;93.60;;;;;;4100189;29;20118;-50
2023/07/26 09:00:59;;;;;;;6.60;2.53;;;20.80;93.20;;;;;;4101512;29;20051;-51
2023/07/26 09:03:04;;;;;;;10.63;2.55;;;20.80;93.20;;;;;;4097394;28;20418;-51
2023/07/26 09:05:08;;;;;;;;;;;20.60;92.80;;;;;;4088271;29;20379;-52
2023/07/26 09:07:11;;;;;;;5.78;2.60;;;20.70;92.30;;;;;;4099714;29;20026;-51
2023/07/26 09:09:14;;;;;;;7.88;2.35;;;20.70;92.80;;;;;;4101888;28;20043;-49
2023/07/26 09:11:23;;;;;;;4.82;1.98;;;20.80;92.20;;;;;;4089852;29;20046;-50
2023/07/26 09:13:25;;;;;;;6.88;2.30;;;20.90;91.30;;;;;;4100775;29;20053;-50
2023/07/26 09:15:34;;;;;;;7.38;2.58;;;20.80;91.60;;;;;;4101429;29;20048;-52
2023/07/26 09:17:39;;;;;;;5.13;2.03;;;20.80;91.20;;;;;;4101559;29;20494;-50
2023/07/26 09:19:42;;;;;;;7.00;2.30;;;20.80;91.50;;;;;;4100592;29;20107;-52
2023/07/26 09:21:44;;;;;;;5.95;2.50;;;20.90;91.00;;;;;;4110116;28;20078;-51
2023/07/26 09:23:46;;;;;;;5.22;2.22;;;21.00;91.20;;;;;;4105303;28;20047;-50
2023/07/26 09:25:53;;;;;;;6.07;2.17;;;21.10;91.20;;;;;;4095639;29;20050;-50
2023/07/26 09:27:56;;;;;;;10.38;2.65;;;21.20;91.60;;;;;;4094350;28;20387;-52
2023/07/26 09:29:59;;;;;;;12.75;3.05;;;21.40;91.70;;;;;;4100772;29;20043;-52
2023/07/26 09:32:02;;;;;;;6.82;2.10;;;21.30;91.20;;;;;;4090952;29;20058;-51
2023/07/26 09:34:07;;;;;;;11.90;1.98;;;21.40;90.70;;;;;;4095552;29;20050;-51
2023/07/26 09:36:10;;;;;;;8.30;2.03;;;21.30;90.50;;;;;;4095277;29;20434;-52
2023/07/26 09:38:13;;;;;;;8.13;2.47;;;21.20;90.40;;;;;;4099657;28;20125;-52
2023/07/26 09:40:15;;;;;;;6.10;1.98;;;21.20;90.50;;;;;;4099322;29;20118;-51
2023/07/26 09:42:43;;;;;;;8.90;1.95;;;21.30;90.00;;;;;;4117153;28;20050;-50
2023/07/26 09:44:46;;;;;;;5.15;1.90;;;21.20;88.30;;;;;;4117096;28;20054;-53
2023/07/26 09:46:50;;;;;;;7.80;2.67;;;21.20;89.40;;;;;;4117144;28;20066;-50
2023/07/26 09:49:00;;;;;;;2.88;1.33;;;21.30;89.00;;;;;;4116349;28;20055;-51
2023/07/26 09:51:05;;;;;;;7.88;2.10;;;21.40;89.00;;;;;;4116874;28;20113;-53
2023/07/26 09:53:11;;;;;;;4.35;1.60;;;21.50;88.50;;;;;;4100024;28;20122;-56
2023/07/26 09:55:14;;;;;;;4.10;1.67;;;21.50;86.60;;;;;;4115254;28;20418;-53
2023/07/26 09:57:23;;;;;;;6.20;1.63;;;21.50;87.20;;;;;;4098145;29;20051;-52
2023/07/26 09:59:27;;;;;;;6.93;1.75;;;21.40;87.20;;;;;;4100040;29;20069;-53
2023/07/26 10:01:33;;;;;;;7.68;1.75;;;21.40;85.90;;;;;;4100819;29;20070;-52
2023/07/26 10:03:36;;;;;;;6.93;1.90;;;21.50;85.20;;;;;;4100788;29;20526;-51
2023/07/26 10:05:42;;;;;;;3.72;1.50;;;21.50;85.40;;;;;;4100930;29;20051;-52
2023/07/26 10:07:47;;;;;;;6.32;1.83;;;21.30;84.60;;;;;;4091558;29;20221;-52
2023/07/26 10:09:51;;;;;;;3.28;1.73;;;21.20;84.40;;;;;;4083874;29;20111;-51
2023/07/26 10:11:57;;;;;;;5.10;2.20;;;21.40;85.10;;;;;;4084924;29;20115;-53
2023/07/26 10:14:02;;;;;;;4.18;1.80;;;21.50;85.80;;;;;;4085383;29;20426;-51
2023/07/26 10:16:05;;;;;;;;;;;21.70;85.90;;;;;;4069239;29;20130;-52
2023/07/26 10:18:07;;;;;;;2.42;1.40;;;21.80;84.60;;;;;;4085967;29;19957;-50
2023/07/26 10:20:10;;;;;;;4.13;1.30;;;21.90;85.50;;;;;;4084841;29;20079;-51
2023/07/26 10:22:13;;;;;;;5.47;1.52;;;21.90;85.20;;;;;;4084804;29;20107;-51
2023/07/26 10:24:19;;;;;;;8.30;1.60;;;21.90;85.60;;;;;;4085381;29;20051;-53
2023/07/26 10:26:22;;;;;;;3.75;1.80;;;22.00;85.60;;;;;;4085072;29;20047;-50
2023/07/26 10:28:25;;;;;;;6.60;1.52;;;22.10;85.10;;;;;;4084852;29;20082;-53
2023/07/26 10:30:27;;;;;;;5.95;1.80;;;22.10;85.40;;;;;;4084507;29;20047;-51
2023/07/26 10:32:30;;;;;;;8.45;2.10;;;22.10;84.70;;;;;;4086329;29;20052;-53
2023/07/26 10:34:33;;;;;;;8.93;1.98;;;21.90;85.00;;;;;;4085419;29;20075;-52
2023/07/26 10:36:36;;;;;;;6.70;1.75;;;22.10;85.40;;;;;;4084485;29;20574;-52
2023/07/26 10:38:40;;;;;;;6.50;1.77;;;22.10;83.50;;;;;;4084183;29;20491;-50